KSHD/SHD METAR and TAF weather

Enter ICAO airport designator
Station Type Date Time Source
KSHD METAR 2019/10/21 02:15 UTC NOAA

KSHD 210215Z AUTO 03004KT 5SM BR OVC003 11/11 A3002 RMK AO2 T01090105


Station Type Date Time Source
KSHD Decoded METAR 2019/10/21 02:15 UTC NOAA

Staunton / Shenandoah, VA, United States (KSHD) 38-16N 078-54W
Oct 20, 2019 - 10:15 PM EDT / 2019.10.21 0215 UTC
Wind: from the NNE (030 degrees) at 5 MPH (4 KT):0
Visibility: 5 mile(s):0
Sky conditions: overcast
Weather: mist
Temperature: 51.6 F (10.9 C)
Dew Point: 50.9 F (10.5 C)
Relative Humidity: 97%
Pressure (altimeter): 30.02 in. Hg (1016 hPa)
ob: KSHD 210215Z AUTO 03004KT 5SM BR OVC003 11/11 A3002 RMK AO2 T01090105
cycle: 2

Station Type Date Time Source
KSHD TAF UTC NOAA

Error!

Example: see airport list